sensor_id;sensor_type;location;lat;lon;timestamp;P1;durP1;ratioP1;P2;durP2;ratioP2
41799;SDS011;27468;47.460;19.034;2024-03-08T00:01:40;32.70;;;19.20;;
41799;SDS011;27468;47.460;19.034;2024-03-08T00:04:05;31.00;;;18.98;;
41799;SDS011;27468;47.460;19.034;2024-03-08T00:06:31;29.73;;;18.50;;
41799;SDS011;27468;47.460;19.034;2024-03-08T00:08:57;29.95;;;18.52;;
41799;SDS011;27468;47.460;19.034;2024-03-08T00:11:22;30.70;;;18.57;;
41799;SDS011;27468;47.460;19.034;2024-03-08T00:13:50;30.92;;;18.95;;
41799;SDS011;27468;47.460;19.034;2024-03-08T00:16:17;33.80;;;19.77;;
41799;SDS011;27468;47.460;19.034;2024-03-08T00:18:44;32.53;;;19.40;;
41799;SDS011;27468;47.460;19.034;2024-03-08T00:21:09;33.75;;;20.00;;
41799;SDS011;27468;47.460;19.034;2024-03-08T00:23:36;31.33;;;18.98;;
41799;SDS011;27468;47.460;19.034;2024-03-08T00:26:02;30.40;;;19.08;;
41799;SDS011;27468;47.460;19.034;2024-03-08T00:28:29;33.80;;;19.48;;
41799;SDS011;27468;47.460;19.034;2024-03-08T00:30:55;33.00;;;20.60;;
41799;SDS011;27468;47.460;19.034;2024-03-08T00:33:21;36.80;;;20.83;;
41799;SDS011;27468;47.460;19.034;2024-03-08T00:35:46;33.45;;;20.20;;
41799;SDS011;27468;47.460;19.034;2024-03-08T00:38:12;35.77;;;20.93;;
41799;SDS011;27468;47.460;19.034;2024-03-08T00:40:38;32.08;;;19.48;;
41799;SDS011;27468;47.460;19.034;2024-03-08T00:43:03;32.57;;;20.00;;
41799;SDS011;27468;47.460;19.034;2024-03-08T00:45:29;39.27;;;22.47;;
41799;SDS011;27468;47.460;19.034;2024-03-08T00:47:54;32.43;;;19.77;;
41799;SDS011;27468;47.460;19.034;2024-03-08T00:50:20;34.23;;;20.60;;
41799;SDS011;27468;47.460;19.034;2024-03-08T00:52:45;36.50;;;21.35;;
41799;SDS011;27468;47.460;19.034;2024-03-08T00:55:11;39.05;;;22.13;;
41799;SDS011;27468;47.460;19.034;2024-03-08T00:57:37;33.65;;;20.70;;
41799;SDS011;27468;47.460;19.034;2024-03-08T01:00:04;35.38;;;20.98;;
41799;SDS011;27468;47.460;19.034;2024-03-08T01:02:34;34.78;;;21.00;;
41799;SDS011;27468;47.460;19.034;2024-03-08T01:05:00;33.25;;;20.23;;
41799;SDS011;27468;47.460;19.034;2024-03-08T01:07:26;35.20;;;20.47;;
41799;SDS011;27468;47.460;19.034;2024-03-08T01:09:51;39.13;;;22.43;;
41799;SDS011;27468;47.460;19.034;2024-03-08T01:12:16;35.87;;;21.17;;
41799;SDS011;27468;47.460;19.034;2024-03-08T01:14:42;34.72;;;20.98;;
41799;SDS011;27468;47.460;19.034;2024-03-08T01:17:07;35.38;;;21.45;;
41799;SDS011;27468;47.460;19.034;2024-03-08T01:19:34;37.30;;;22.25;;
41799;SDS011;27468;47.460;19.034;2024-03-08T01:21:59;35.73;;;19.90;;
41799;SDS011;27468;47.460;19.034;2024-03-08T01:24:25;34.63;;;21.30;;
41799;SDS011;27468;47.460;19.034;2024-03-08T01:26:50;36.07;;;21.47;;
41799;SDS011;27468;47.460;19.034;2024-03-08T01:29:15;34.13;;;21.37;;
41799;SDS011;27468;47.460;19.034;2024-03-08T01:31:41;38.13;;;22.17;;
41799;SDS011;27468;47.460;19.034;2024-03-08T01:34:06;38.93;;;23.40;;
41799;SDS011;27468;47.460;19.034;2024-03-08T01:36:31;38.67;;;22.20;;
41799;SDS011;27468;47.460;19.034;2024-03-08T01:38:56;37.80;;;21.77;;
41799;SDS011;27468;47.460;19.034;2024-03-08T01:41:22;37.17;;;22.73;;
41799;SDS011;27468;47.460;19.034;2024-03-08T01:43:48;38.35;;;22.63;;
41799;SDS011;27468;47.460;19.034;2024-03-08T01:46:15;39.97;;;23.77;;
41799;SDS011;27468;47.460;19.034;2024-03-08T01:48:44;39.22;;;22.85;;
41799;SDS011;27468;47.460;19.034;2024-03-08T01:51:09;40.30;;;23.80;;
41799;SDS011;27468;47.460;19.034;2024-03-08T01:53:36;39.15;;;23.77;;
41799;SDS011;27468;47.460;19.034;2024-03-08T01:56:02;43.70;;;25.40;;
41799;SDS011;27468;47.460;19.034;2024-03-08T01:58:29;42.88;;;24.02;;
41799;SDS011;27468;47.460;19.034;2024-03-08T02:00:56;40.90;;;23.40;;
41799;SDS011;27468;47.460;19.034;2024-03-08T02:03:23;41.55;;;23.70;;
41799;SDS011;27468;47.460;19.034;2024-03-08T02:05:48;44.07;;;25.37;;
41799;SDS011;27468;47.460;19.034;2024-03-08T02:08:14;44.92;;;25.35;;
41799;SDS011;27468;47.460;19.034;2024-03-08T02:10:43;41.22;;;24.08;;
41799;SDS011;27468;47.460;19.034;2024-03-08T02:13:10;45.97;;;25.63;;
41799;SDS011;27468;47.460;19.034;2024-03-08T02:15:56;44.03;;;25.42;;
41799;SDS011;27468;47.460;19.034;2024-03-08T02:18:24;47.60;;;26.30;;
41799;SDS011;27468;47.460;19.034;2024-03-08T02:20:53;47.47;;;25.20;;
41799;SDS011;27468;47.460;19.034;2024-03-08T02:23:19;46.07;;;26.30;;
41799;SDS011;27468;47.460;19.034;2024-03-08T02:25:45;52.45;;;28.75;;
41799;SDS011;27468;47.460;19.034;2024-03-08T02:28:11;47.15;;;25.75;;
41799;SDS011;27468;47.460;19.034;2024-03-08T02:30:38;49.50;;;27.90;;
41799;SDS011;27468;47.460;19.034;2024-03-08T02:33:04;47.87;;;26.87;;
41799;SDS011;27468;47.460;19.034;2024-03-08T02:35:30;47.55;;;25.52;;
41799;SDS011;27468;47.460;19.034;2024-03-08T02:37:56;48.72;;;27.05;;
41799;SDS011;27468;47.460;19.034;2024-03-08T02:40:21;46.87;;;26.73;;
41799;SDS011;27468;47.460;19.034;2024-03-08T02:42:47;49.90;;;27.27;;
41799;SDS011;27468;47.460;19.034;2024-03-08T02:45:12;50.22;;;28.08;;
41799;SDS011;27468;47.460;19.034;2024-03-08T02:47:38;52.63;;;27.97;;
41799;SDS011;27468;47.460;19.034;2024-03-08T02:50:04;48.20;;;27.13;;
41799;SDS011;27468;47.460;19.034;2024-03-08T02:52:32;52.17;;;28.27;;
41799;SDS011;27468;47.460;19.034;2024-03-08T02:55:01;50.22;;;27.77;;
41799;SDS011;27468;47.460;19.034;2024-03-08T02:57:27;53.00;;;28.10;;
41799;SDS011;27468;47.460;19.034;2024-03-08T02:59:55;50.37;;;28.30;;
41799;SDS011;27468;47.460;19.034;2024-03-08T03:02:21;47.90;;;25.73;;
41799;SDS011;27468;47.460;19.034;2024-03-08T03:04:48;54.88;;;29.30;;
41799;SDS011;27468;47.460;19.034;2024-03-08T03:07:13;54.55;;;29.30;;
41799;SDS011;27468;47.460;19.034;2024-03-08T03:09:38;51.83;;;28.47;;
41799;SDS011;27468;47.460;19.034;2024-03-08T03:12:04;51.57;;;27.70;;
41799;SDS011;27468;47.460;19.034;2024-03-08T03:14:29;50.17;;;26.70;;
41799;SDS011;27468;47.460;19.034;2024-03-08T03:16:54;52.13;;;29.17;;
41799;SDS011;27468;47.460;19.034;2024-03-08T03:19:20;56.80;;;30.00;;
41799;SDS011;27468;47.460;19.034;2024-03-08T03:21:45;55.10;;;28.23;;
41799;SDS011;27468;47.460;19.034;2024-03-08T03:24:11;56.60;;;29.23;;
41799;SDS011;27468;47.460;19.034;2024-03-08T03:26:37;52.80;;;28.67;;
41799;SDS011;27468;47.460;19.034;2024-03-08T03:29:06;53.63;;;28.35;;
41799;SDS011;27468;47.460;19.034;2024-03-08T03:31:33;50.27;;;27.27;;
41799;SDS011;27468;47.460;19.034;2024-03-08T03:33:59;51.78;;;27.98;;
41799;SDS011;27468;47.460;19.034;2024-03-08T03:36:27;55.08;;;29.27;;
41799;SDS011;27468;47.460;19.034;2024-03-08T03:38:53;56.67;;;30.17;;
41799;SDS011;27468;47.460;19.034;2024-03-08T03:41:29;57.50;;;30.40;;
41799;SDS011;27468;47.460;19.034;2024-03-08T03:43:55;55.08;;;29.55;;
41799;SDS011;27468;47.460;19.034;2024-03-08T03:46:20;57.80;;;30.40;;
41799;SDS011;27468;47.460;19.034;2024-03-08T03:48:45;54.85;;;30.33;;
41799;SDS011;27468;47.460;19.034;2024-03-08T03:51:11;54.30;;;29.20;;
41799;SDS011;27468;47.460;19.034;2024-03-08T03:53:37;57.00;;;30.27;;
41799;SDS011;27468;47.460;19.034;2024-03-08T03:56:02;51.40;;;28.17;;
41799;SDS011;27468;47.460;19.034;2024-03-08T03:58:32;56.30;;;30.53;;
41799;SDS011;27468;47.460;19.034;2024-03-08T04:00:57;53.85;;;29.25;;
41799;SDS011;27468;47.460;19.034;2024-03-08T04:03:23;50.70;;;28.00;;
41799;SDS011;27468;47.460;19.034;2024-03-08T04:05:48;52.87;;;28.17;;
41799;SDS011;27468;47.460;19.034;2024-03-08T04:08:14;55.53;;;28.70;;
41799;SDS011;27468;47.460;19.034;2024-03-08T04:10:39;54.03;;;28.30;;
41799;SDS011;27468;47.460;19.034;2024-03-08T04:13:06;53.42;;;28.08;;
41799;SDS011;27468;47.460;19.034;2024-03-08T04:15:34;58.03;;;30.15;;
41799;SDS011;27468;47.460;19.034;2024-03-08T04:17:59;53.38;;;28.55;;
41799;SDS011;27468;47.460;19.034;2024-03-08T04:20:25;56.07;;;29.83;;
41799;SDS011;27468;47.460;19.034;2024-03-08T04:22:50;53.60;;;29.03;;
41799;SDS011;27468;47.460;19.034;2024-03-08T04:25:16;54.43;;;29.40;;
41799;SDS011;27468;47.460;19.034;2024-03-08T04:27:41;55.40;;;29.20;;
41799;SDS011;27468;47.460;19.034;2024-03-08T04:30:07;53.90;;;29.27;;
41799;SDS011;27468;47.460;19.034;2024-03-08T04:32:33;54.60;;;29.20;;
41799;SDS011;27468;47.460;19.034;2024-03-08T04:34:58;53.80;;;29.53;;
41799;SDS011;27468;47.460;19.034;2024-03-08T04:37:26;53.55;;;30.15;;
41799;SDS011;27468;47.460;19.034;2024-03-08T04:39:51;55.83;;;30.15;;
41799;SDS011;27468;47.460;19.034;2024-03-08T04:42:17;55.30;;;29.13;;
41799;SDS011;27468;47.460;19.034;2024-03-08T04:44:43;57.58;;;30.88;;
41799;SDS011;27468;47.460;19.034;2024-03-08T04:47:08;59.83;;;30.63;;
41799;SDS011;27468;47.460;19.034;2024-03-08T04:49:35;59.33;;;31.10;;
41799;SDS011;27468;47.460;19.034;2024-03-08T04:52:03;57.70;;;30.90;;
41799;SDS011;27468;47.460;19.034;2024-03-08T04:54:30;59.28;;;30.35;;
41799;SDS011;27468;47.460;19.034;2024-03-08T04:56:56;62.45;;;32.17;;
41799;SDS011;27468;47.460;19.034;2024-03-08T04:59:21;58.27;;;30.00;;
41799;SDS011;27468;47.460;19.034;2024-03-08T05:01:47;58.80;;;30.57;;
41799;SDS011;27468;47.460;19.034;2024-03-08T05:04:12;58.40;;;30.57;;
41799;SDS011;27468;47.460;19.034;2024-03-08T05:06:38;61.90;;;31.40;;
41799;SDS011;27468;47.460;19.034;2024-03-08T05:09:03;56.07;;;30.27;;
41799;SDS011;27468;47.460;19.034;2024-03-08T05:11:44;58.13;;;30.47;;
41799;SDS011;27468;47.460;19.034;2024-03-08T05:14:10;61.20;;;31.95;;
41799;SDS011;27468;47.460;19.034;2024-03-08T05:16:37;64.93;;;32.67;;
41799;SDS011;27468;47.460;19.034;2024-03-08T05:19:03;64.83;;;32.03;;
41799;SDS011;27468;47.460;19.034;2024-03-08T05:21:28;63.07;;;32.17;;
41799;SDS011;27468;47.460;19.034;2024-03-08T05:23:54;64.90;;;32.37;;
41799;SDS011;27468;47.460;19.034;2024-03-08T05:26:19;62.80;;;31.40;;
41799;SDS011;27468;47.460;19.034;2024-03-08T05:28:44;62.63;;;31.27;;
41799;SDS011;27468;47.460;19.034;2024-03-08T05:31:10;62.63;;;31.87;;
41799;SDS011;27468;47.460;19.034;2024-03-08T05:33:35;59.17;;;30.67;;
41799;SDS011;27468;47.460;19.034;2024-03-08T05:36:00;55.37;;;29.27;;
41799;SDS011;27468;47.460;19.034;2024-03-08T05:38:27;59.70;;;30.73;;
41799;SDS011;27468;47.460;19.034;2024-03-08T05:40:53;58.13;;;30.13;;
41799;SDS011;27468;47.460;19.034;2024-03-08T05:43:19;60.20;;;32.00;;
41799;SDS011;27468;47.460;19.034;2024-03-08T05:45:44;58.10;;;30.10;;
41799;SDS011;27468;47.460;19.034;2024-03-08T05:48:10;63.50;;;31.90;;
41799;SDS011;27468;47.460;19.034;2024-03-08T05:50:37;60.15;;;31.33;;
41799;SDS011;27468;47.460;19.034;2024-03-08T05:53:03;62.15;;;32.05;;
41799;SDS011;27468;47.460;19.034;2024-03-08T05:55:31;60.70;;;31.45;;
41799;SDS011;27468;47.460;19.034;2024-03-08T05:58:00;59.08;;;30.67;;
41799;SDS011;27468;47.460;19.034;2024-03-08T06:00:28;58.30;;;30.60;;
41799;SDS011;27468;47.460;19.034;2024-03-08T06:02:56;58.13;;;31.10;;
41799;SDS011;27468;47.460;19.034;2024-03-08T06:05:21;60.27;;;31.60;;
41799;SDS011;27468;47.460;19.034;2024-03-08T06:07:48;65.28;;;32.05;;
41799;SDS011;27468;47.460;19.034;2024-03-08T06:10:13;58.67;;;30.83;;
41799;SDS011;27468;47.460;19.034;2024-03-08T06:12:39;57.20;;;30.20;;
41799;SDS011;27468;47.460;19.034;2024-03-08T06:15:08;59.10;;;31.10;;
41799;SDS011;27468;47.460;19.034;2024-03-08T06:17:35;59.10;;;30.23;;
41799;SDS011;27468;47.460;19.034;2024-03-08T06:20:03;57.22;;;30.67;;
41799;SDS011;27468;47.460;19.034;2024-03-08T06:22:35;55.33;;;29.55;;
41799;SDS011;27468;47.460;19.034;2024-03-08T06:25:00;55.00;;;29.23;;
41799;SDS011;27468;47.460;19.034;2024-03-08T06:27:26;55.17;;;29.53;;
41799;SDS011;27468;47.460;19.034;2024-03-08T06:29:51;59.23;;;31.00;;
41799;SDS011;27468;47.460;19.034;2024-03-08T06:32:16;57.83;;;29.40;;
41799;SDS011;27468;47.460;19.034;2024-03-08T06:34:42;61.87;;;31.90;;
41799;SDS011;27468;47.460;19.034;2024-03-08T06:37:07;56.30;;;29.33;;
41799;SDS011;27468;47.460;19.034;2024-03-08T06:39:32;56.83;;;29.93;;
41799;SDS011;27468;47.460;19.034;2024-03-08T06:41:59;57.65;;;29.73;;
41799;SDS011;27468;47.460;19.034;2024-03-08T06:44:24;56.95;;;30.50;;
41799;SDS011;27468;47.460;19.034;2024-03-08T06:46:50;56.05;;;29.73;;
41799;SDS011;27468;47.460;19.034;2024-03-08T06:49:16;59.90;;;30.60;;
41799;SDS011;27468;47.460;19.034;2024-03-08T06:51:41;59.17;;;31.57;;
41799;SDS011;27468;47.460;19.034;2024-03-08T06:54:06;58.27;;;30.50;;
41799;SDS011;27468;47.460;19.034;2024-03-08T06:56:37;58.40;;;31.52;;
41799;SDS011;27468;47.460;19.034;2024-03-08T06:59:02;57.22;;;31.23;;
41799;SDS011;27468;47.460;19.034;2024-03-08T07:01:29;58.35;;;31.00;;
41799;SDS011;27468;47.460;19.034;2024-03-08T07:03:57;56.20;;;29.83;;
41799;SDS011;27468;47.460;19.034;2024-03-08T07:06:23;58.38;;;30.90;;
41799;SDS011;27468;47.460;19.034;2024-03-08T07:08:48;57.55;;;30.33;;
41799;SDS011;27468;47.460;19.034;2024-03-08T07:11:14;56.90;;;29.83;;
41799;SDS011;27468;47.460;19.034;2024-03-08T07:13:43;57.97;;;29.80;;
41799;SDS011;27468;47.460;19.034;2024-03-08T07:16:09;58.78;;;30.33;;
41799;SDS011;27468;47.460;19.034;2024-03-08T07:18:37;57.50;;;28.83;;
41799;SDS011;27468;47.460;19.034;2024-03-08T07:21:04;58.58;;;30.08;;
41799;SDS011;27468;47.460;19.034;2024-03-08T07:23:30;55.85;;;30.10;;
41799;SDS011;27468;47.460;19.034;2024-03-08T07:26:17;59.22;;;31.02;;
41799;SDS011;27468;47.460;19.034;2024-03-08T07:28:44;62.47;;;31.25;;
41799;SDS011;27468;47.460;19.034;2024-03-08T07:31:10;63.53;;;32.42;;
41799;SDS011;27468;47.460;19.034;2024-03-08T07:33:42;61.22;;;31.05;;
41799;SDS011;27468;47.460;19.034;2024-03-08T07:36:07;62.73;;;31.47;;
41799;SDS011;27468;47.460;19.034;2024-03-08T07:38:33;59.42;;;31.23;;
41799;SDS011;27468;47.460;19.034;2024-03-08T07:40:58;60.27;;;31.40;;
41799;SDS011;27468;47.460;19.034;2024-03-08T07:43:25;64.05;;;32.45;;
41799;SDS011;27468;47.460;19.034;2024-03-08T07:45:50;63.92;;;31.17;;
41799;SDS011;27468;47.460;19.034;2024-03-08T07:48:17;63.47;;;32.15;;
41799;SDS011;27468;47.460;19.034;2024-03-08T07:50:43;61.43;;;31.83;;
41799;SDS011;27468;47.460;19.034;2024-03-08T07:53:08;60.57;;;31.03;;
41799;SDS011;27468;47.460;19.034;2024-03-08T07:55:34;62.30;;;31.52;;
41799;SDS011;27468;47.460;19.034;2024-03-08T07:58:01;61.53;;;31.17;;
41799;SDS011;27468;47.460;19.034;2024-03-08T08:00:27;63.65;;;31.88;;
41799;SDS011;27468;47.460;19.034;2024-03-08T08:02:53;61.73;;;31.63;;
41799;SDS011;27468;47.460;19.034;2024-03-08T08:05:19;64.28;;;31.92;;
41799;SDS011;27468;47.460;19.034;2024-03-08T08:07:44;60.92;;;31.02;;
41799;SDS011;27468;47.460;19.034;2024-03-08T08:10:11;63.90;;;32.47;;
41799;SDS011;27468;47.460;19.034;2024-03-08T08:12:46;60.50;;;31.73;;
41799;SDS011;27468;47.460;19.034;2024-03-08T08:15:13;59.88;;;31.58;;
41799;SDS011;27468;47.460;19.034;2024-03-08T08:17:40;62.05;;;30.52;;
41799;SDS011;27468;47.460;19.034;2024-03-08T08:20:05;61.40;;;31.13;;
41799;SDS011;27468;47.460;19.034;2024-03-08T08:22:31;63.22;;;31.83;;
41799;SDS011;27468;47.460;19.034;2024-03-08T08:24:57;64.47;;;32.25;;
41799;SDS011;27468;47.460;19.034;2024-03-08T08:27:22;67.60;;;33.03;;
41799;SDS011;27468;47.460;19.034;2024-03-08T08:29:47;69.83;;;32.97;;
41799;SDS011;27468;47.460;19.034;2024-03-08T08:32:14;71.03;;;34.03;;
41799;SDS011;27468;47.460;19.034;2024-03-08T08:34:40;68.13;;;33.25;;
41799;SDS011;27468;47.460;19.034;2024-03-08T08:37:07;67.57;;;33.50;;
41799;SDS011;27468;47.460;19.034;2024-03-08T08:39:34;68.47;;;32.83;;
41799;SDS011;27468;47.460;19.034;2024-03-08T08:42:00;73.32;;;33.45;;
41799;SDS011;27468;47.460;19.034;2024-03-08T08:44:25;76.80;;;34.38;;
41799;SDS011;27468;47.460;19.034;2024-03-08T08:46:50;75.25;;;34.78;;
41799;SDS011;27468;47.460;19.034;2024-03-08T08:49:16;75.88;;;33.80;;
41799;SDS011;27468;47.460;19.034;2024-03-08T08:51:54;74.60;;;33.53;;
41799;SDS011;27468;47.460;19.034;2024-03-08T08:54:19;76.50;;;34.43;;
41799;SDS011;27468;47.460;19.034;2024-03-08T08:56:45;78.55;;;34.22;;
41799;SDS011;27468;47.460;19.034;2024-03-08T08:59:12;74.35;;;34.40;;
41799;SDS011;27468;47.460;19.034;2024-03-08T09:01:39;72.93;;;33.65;;
41799;SDS011;27468;47.460;19.034;2024-03-08T09:04:05;76.93;;;34.80;;
41799;SDS011;27468;47.460;19.034;2024-03-08T09:06:30;71.43;;;33.22;;
41799;SDS011;27468;47.460;19.034;2024-03-08T09:08:56;70.70;;;33.97;;
41799;SDS011;27468;47.460;19.034;2024-03-08T09:11:21;67.47;;;32.87;;
41799;SDS011;27468;47.460;19.034;2024-03-08T09:13:46;67.67;;;32.37;;
41799;SDS011;27468;47.460;19.034;2024-03-08T09:16:12;63.13;;;32.30;;
41799;SDS011;27468;47.460;19.034;2024-03-08T09:18:37;66.63;;;32.30;;
41799;SDS011;27468;47.460;19.034;2024-03-08T09:21:02;66.13;;;32.70;;
41799;SDS011;27468;47.460;19.034;2024-03-08T09:23:30;67.90;;;33.05;;
41799;SDS011;27468;47.460;19.034;2024-03-08T09:25:58;59.50;;;30.38;;
41799;SDS011;27468;47.460;19.034;2024-03-08T09:28:24;60.03;;;31.00;;
41799;SDS011;27468;47.460;19.034;2024-03-08T09:30:50;63.60;;;32.13;;
41799;SDS011;27468;47.460;19.034;2024-03-08T09:33:15;62.35;;;32.08;;
41799;SDS011;27468;47.460;19.034;2024-03-08T09:35:44;58.08;;;30.88;;
41799;SDS011;27468;47.460;19.034;2024-03-08T09:38:12;61.30;;;31.48;;
41799;SDS011;27468;47.460;19.034;2024-03-08T09:40:38;60.90;;;31.37;;
41799;SDS011;27468;47.460;19.034;2024-03-08T09:43:05;63.50;;;31.92;;
41799;SDS011;27468;47.460;19.034;2024-03-08T09:45:31;58.63;;;31.20;;
41799;SDS011;27468;47.460;19.034;2024-03-08T09:48:01;59.75;;;30.98;;
41799;SDS011;27468;47.460;19.034;2024-03-08T09:50:27;58.43;;;30.23;;
41799;SDS011;27468;47.460;19.034;2024-03-08T09:52:54;59.47;;;31.15;;
41799;SDS011;27468;47.460;19.034;2024-03-08T09:55:22;64.13;;;32.00;;
41799;SDS011;27468;47.460;19.034;2024-03-08T09:57:49;60.08;;;30.98;;
41799;SDS011;27468;47.460;19.034;2024-03-08T10:00:34;61.30;;;31.47;;
41799;SDS011;27468;47.460;19.034;2024-03-08T10:03:00;55.07;;;30.63;;
41799;SDS011;27468;47.460;19.034;2024-03-08T10:05:27;52.17;;;28.90;;
41799;SDS011;27468;47.460;19.034;2024-03-08T10:07:52;54.00;;;29.57;;
41799;SDS011;27468;47.460;19.034;2024-03-08T10:10:18;51.50;;;28.83;;
41799;SDS011;27468;47.460;19.034;2024-03-08T10:12:43;50.53;;;29.73;;
41799;SDS011;27468;47.460;19.034;2024-03-08T10:15:10;52.50;;;29.55;;
41799;SDS011;27468;47.460;19.034;2024-03-08T10:17:37;50.57;;;28.77;;
41799;SDS011;27468;47.460;19.034;2024-03-08T10:20:06;49.47;;;27.83;;
41799;SDS011;27468;47.460;19.034;2024-03-08T10:22:40;47.85;;;27.95;;
41799;SDS011;27468;47.460;19.034;2024-03-08T10:25:07;47.85;;;28.15;;
41799;SDS011;27468;47.460;19.034;2024-03-08T10:27:35;44.03;;;27.25;;
41799;SDS011;27468;47.460;19.034;2024-03-08T10:30:01;46.67;;;27.73;;
41799;SDS011;27468;47.460;19.034;2024-03-08T10:32:26;46.80;;;27.47;;
41799;SDS011;27468;47.460;19.034;2024-03-08T10:34:52;46.72;;;27.70;;
41799;SDS011;27468;47.460;19.034;2024-03-08T10:37:18;47.97;;;27.07;;
41799;SDS011;27468;47.460;19.034;2024-03-08T10:40:03;48.50;;;27.88;;
41799;SDS011;27468;47.460;19.034;2024-03-08T10:42:35;46.33;;;27.42;;
41799;SDS011;27468;47.460;19.034;2024-03-08T10:45:23;47.65;;;26.92;;
41799;SDS011;27468;47.460;19.034;2024-03-08T10:48:04;46.75;;;26.85;;
41799;SDS011;27468;47.460;19.034;2024-03-08T10:50:45;51.13;;;29.45;;
41799;SDS011;27468;47.460;19.034;2024-03-08T10:53:14;47.97;;;28.08;;
41799;SDS011;27468;47.460;19.034;2024-03-08T10:55:40;44.88;;;26.30;;
41799;SDS011;27468;47.460;19.034;2024-03-08T10:58:06;47.20;;;27.27;;
41799;SDS011;27468;47.460;19.034;2024-03-08T11:00:33;48.90;;;26.53;;
41799;SDS011;27468;47.460;19.034;2024-03-08T11:02:58;51.50;;;27.77;;
41799;SDS011;27468;47.460;19.034;2024-03-08T11:05:40;53.42;;;28.75;;
41799;SDS011;27468;47.460;19.034;2024-03-08T11:10:47;53.70;;;29.70;;
41799;SDS011;27468;47.460;19.034;2024-03-08T11:13:32;58.28;;;30.85;;
41799;SDS011;27468;47.460;19.034;2024-03-08T11:16:09;55.57;;;30.47;;
41799;SDS011;27468;47.460;19.034;2024-03-08T11:18:35;52.80;;;30.25;;
41799;SDS011;27468;47.460;19.034;2024-03-08T11:21:02;51.03;;;29.60;;
41799;SDS011;27468;47.460;19.034;2024-03-08T11:23:32;49.13;;;29.05;;
41799;SDS011;27468;47.460;19.034;2024-03-08T11:25:58;50.05;;;29.25;;
41799;SDS011;27468;47.460;19.034;2024-03-08T11:28:24;49.38;;;28.90;;
41799;SDS011;27468;47.460;19.034;2024-03-08T11:33:24;45.88;;;26.50;;
41799;SDS011;27468;47.460;19.034;2024-03-08T11:35:51;43.42;;;26.80;;
41799;SDS011;27468;47.460;19.034;2024-03-08T11:38:17;44.90;;;27.43;;
41799;SDS011;27468;47.460;19.034;2024-03-08T11:40:45;45.25;;;27.23;;
41799;SDS011;27468;47.460;19.034;2024-03-08T11:43:15;40.58;;;26.02;;
41799;SDS011;27468;47.460;19.034;2024-03-08T11:45:41;41.90;;;26.33;;
41799;SDS011;27468;47.460;19.034;2024-03-08T11:48:06;38.37;;;25.13;;
41799;SDS011;27468;47.460;19.034;2024-03-08T11:50:31;36.80;;;24.13;;
41799;SDS011;27468;47.460;19.034;2024-03-08T11:53:03;39.45;;;24.58;;
41799;SDS011;27468;47.460;19.034;2024-03-08T11:55:30;37.80;;;25.10;;
41799;SDS011;27468;47.460;19.034;2024-03-08T11:58:01;37.50;;;24.27;;
41799;SDS011;27468;47.460;19.034;2024-03-08T12:00:27;37.90;;;24.58;;
41799;SDS011;27468;47.460;19.034;2024-03-08T12:03:03;33.58;;;22.40;;
41799;SDS011;27468;47.460;19.034;2024-03-08T12:05:35;32.78;;;22.20;;
41799;SDS011;27468;47.460;19.034;2024-03-08T12:08:01;31.83;;;22.10;;
41799;SDS011;27468;47.460;19.034;2024-03-08T12:10:30;34.92;;;23.48;;
41799;SDS011;27468;47.460;19.034;2024-03-08T12:12:56;34.88;;;23.80;;
41799;SDS011;27468;47.460;19.034;2024-03-08T12:15:24;34.42;;;22.98;;
41799;SDS011;27468;47.460;19.034;2024-03-08T12:17:51;34.55;;;22.65;;
41799;SDS011;27468;47.460;19.034;2024-03-08T12:20:27;35.60;;;23.42;;
41799;SDS011;27468;47.460;19.034;2024-03-08T12:22:55;37.23;;;24.67;;
41799;SDS011;27468;47.460;19.034;2024-03-08T12:25:22;43.13;;;33.95;;
41799;SDS011;27468;47.460;19.034;2024-03-08T12:27:48;40.67;;;27.40;;
41799;SDS011;27468;47.460;19.034;2024-03-08T12:30:17;41.30;;;26.85;;
41799;SDS011;27468;47.460;19.034;2024-03-08T12:32:47;41.80;;;26.23;;
41799;SDS011;27468;47.460;19.034;2024-03-08T12:35:18;44.95;;;28.60;;
41799;SDS011;27468;47.460;19.034;2024-03-08T12:37:47;41.92;;;26.88;;
41799;SDS011;27468;47.460;19.034;2024-03-08T12:40:14;41.10;;;26.38;;
41799;SDS011;27468;47.460;19.034;2024-03-08T12:42:41;38.20;;;25.95;;
41799;SDS011;27468;47.460;19.034;2024-03-08T12:45:08;35.50;;;24.45;;
41799;SDS011;27468;47.460;19.034;2024-03-08T12:47:35;38.10;;;24.35;;
41799;SDS011;27468;47.460;19.034;2024-03-08T12:50:00;35.30;;;24.33;;
41799;SDS011;27468;47.460;19.034;2024-03-08T12:52:26;31.60;;;22.40;;
41799;SDS011;27468;47.460;19.034;2024-03-08T12:54:51;33.30;;;22.63;;
41799;SDS011;27468;47.460;19.034;2024-03-08T12:57:16;32.83;;;22.20;;
41799;SDS011;27468;47.460;19.034;2024-03-08T12:59:42;33.53;;;22.67;;
41799;SDS011;27468;47.460;19.034;2024-03-08T13:02:07;30.88;;;21.17;;
41799;SDS011;27468;47.460;19.034;2024-03-08T13:04:36;33.10;;;23.10;;
41799;SDS011;27468;47.460;19.034;2024-03-08T13:07:01;31.60;;;22.33;;
41799;SDS011;27468;47.460;19.034;2024-03-08T13:09:27;33.73;;;23.33;;
41799;SDS011;27468;47.460;19.034;2024-03-08T13:11:52;30.03;;;20.67;;
41799;SDS011;27468;47.460;19.034;2024-03-08T13:14:20;25.20;;;18.75;;
41799;SDS011;27468;47.460;19.034;2024-03-08T13:16:46;25.83;;;18.55;;
41799;SDS011;27468;47.460;19.034;2024-03-08T13:19:13;22.67;;;17.10;;
41799;SDS011;27468;47.460;19.034;2024-03-08T13:21:38;22.83;;;17.15;;
41799;SDS011;27468;47.460;19.034;2024-03-08T13:24:04;21.30;;;17.30;;
41799;SDS011;27468;47.460;19.034;2024-03-08T13:26:29;20.77;;;17.23;;
41799;SDS011;27468;47.460;19.034;2024-03-08T13:28:57;20.15;;;15.50;;
41799;SDS011;27468;47.460;19.034;2024-03-08T13:31:23;19.08;;;14.93;;
41799;SDS011;27468;47.460;19.034;2024-03-08T13:33:48;19.57;;;15.47;;
41799;SDS011;27468;47.460;19.034;2024-03-08T13:36:16;17.98;;;14.52;;
41799;SDS011;27468;47.460;19.034;2024-03-08T13:38:45;17.93;;;13.53;;
41799;SDS011;27468;47.460;19.034;2024-03-08T13:41:12;18.83;;;14.07;;
41799;SDS011;27468;47.460;19.034;2024-03-08T13:43:42;17.27;;;13.80;;
41799;SDS011;27468;47.460;19.034;2024-03-08T13:46:17;20.30;;;14.65;;
41799;SDS011;27468;47.460;19.034;2024-03-08T13:48:42;21.55;;;15.85;;
41799;SDS011;27468;47.460;19.034;2024-03-08T13:51:08;24.00;;;16.92;;
41799;SDS011;27468;47.460;19.034;2024-03-08T13:53:40;26.00;;;17.85;;
41799;SDS011;27468;47.460;19.034;2024-03-08T13:56:06;27.80;;;19.10;;
41799;SDS011;27468;47.460;19.034;2024-03-08T13:58:33;31.25;;;20.90;;
41799;SDS011;27468;47.460;19.034;2024-03-08T14:01:00;30.52;;;20.20;;
41799;SDS011;27468;47.460;19.034;2024-03-08T14:03:30;31.43;;;20.40;;
41799;SDS011;27468;47.460;19.034;2024-03-08T14:05:57;31.77;;;21.30;;
41799;SDS011;27468;47.460;19.034;2024-03-08T14:08:23;33.58;;;21.70;;
41799;SDS011;27468;47.460;19.034;2024-03-08T14:10:49;33.90;;;21.75;;
41799;SDS011;27468;47.460;19.034;2024-03-08T14:13:17;33.80;;;21.95;;